EPKK/KRK METAR and TAF weather

Enter ICAO airport designator
Station Type Date Time Source
EPKK METAR 2019/12/06 04:00 UTC NOAA

EPKK 060400Z 19005KT 3000 BR NSC M05/M07 Q1019


Station Type Date Time Source
EPKK Decoded METAR 2019/12/06 04:00 UTC NOAA

Krakow, Poland (EPKK) 50-05N 019-48E 237M
Dec 05, 2019 - 11:00 PM EST / 2019.12.06 0400 UTC
Wind: from the S (190 degrees) at 6 MPH (5 KT):0
Visibility: 1 mile(s):0
Weather: mist
Temperature: 23 F (-5 C)
Windchill: 15 F (-9 C):1
Dew Point: 19 F (-7 C)
Relative Humidity: 85%
Pressure (altimeter): 30.09 in. Hg (1019 hPa)
ob: EPKK 060400Z 19005KT 3000 BR NSC M05/M07 Q1019
cycle: 4

Station Type Date Time Source
EPKK TAF 2019/12/06 03:33 UTC NOAA

TAF TAF EPKK 060230Z 0603/0703 23004KT 4000 BR NSC
TEMPO 0603/0607 1400 BR
BECMG 0607/0610 CAVOK
TEMPO 0622/0703 4000 BR

Example: see airport list